sensor_id;sensor_type;location;lat;lon;timestamp;temperature;humidity
33741;DHT22;20065;48.380;10.892;2023-08-06T00:02:28;16.30;99.90
33741;DHT22;20065;48.380;10.892;2023-08-06T00:09:38;16.30;99.90
33741;DHT22;20065;48.380;10.892;2023-08-06T00:12:25;16.20;99.90
33741;DHT22;20065;48.380;10.892;2023-08-06T00:15:11;16.20;99.90
33741;DHT22;20065;48.380;10.892;2023-08-06T00:17:58;16.30;99.90
33741;DHT22;20065;48.380;10.892;2023-08-06T00:20:44;16.60;99.90
33741;DHT22;20065;48.380;10.892;2023-08-06T00:23:30;16.60;99.90
33741;DHT22;20065;48.380;10.892;2023-08-06T00:26:16;16.50;99.90
33741;DHT22;20065;48.380;10.892;2023-08-06T00:29:04;16.70;99.90
33741;DHT22;20065;48.380;10.892;2023-08-06T00:31:54;16.90;99.90
33741;DHT22;20065;48.380;10.892;2023-08-06T00:34:40;16.80;99.90
33741;DHT22;20065;48.380;10.892;2023-08-06T00:37:28;16.70;99.90
33741;DHT22;20065;48.380;10.892;2023-08-06T00:40:15;16.60;99.90
33741;DHT22;20065;48.380;10.892;2023-08-06T00:43:01;16.60;99.90
33741;DHT22;20065;48.380;10.892;2023-08-06T00:45:48;16.80;99.90
33741;DHT22;20065;48.380;10.892;2023-08-06T00:48:35;16.80;99.90
33741;DHT22;20065;48.380;10.892;2023-08-06T00:51:22;16.80;99.90
33741;DHT22;20065;48.380;10.892;2023-08-06T00:54:10;17.00;99.90
33741;DHT22;20065;48.380;10.892;2023-08-06T00:56:56;16.60;99.90
33741;DHT22;20065;48.380;10.892;2023-08-06T00:59:44;16.50;99.90
33741;DHT22;20065;48.380;10.892;2023-08-06T01:02:31;16.60;99.90
33741;DHT22;20065;48.380;10.892;2023-08-06T01:05:17;16.80;99.90
33741;DHT22;20065;48.380;10.892;2023-08-06T01:14:30;17.10;99.90
33741;DHT22;20065;48.380;10.892;2023-08-06T01:17:20;17.10;99.90
33741;DHT22;20065;48.380;10.892;2023-08-06T01:20:07;17.10;99.90
33741;DHT22;20065;48.380;10.892;2023-08-06T01:22:53;17.10;99.90
33741;DHT22;20065;48.380;10.892;2023-08-06T01:28:43;17.10;99.90
33741;DHT22;20065;48.380;10.892;2023-08-06T01:31:41;16.70;99.90
33741;DHT22;20065;48.380;10.892;2023-08-06T01:34:31;16.60;99.90
33741;DHT22;20065;48.380;10.892;2023-08-06T01:37:18;16.30;99.90
33741;DHT22;20065;48.380;10.892;2023-08-06T01:40:12;16.20;99.90
33741;DHT22;20065;48.380;10.892;2023-08-06T01:42:58;16.20;99.90
33741;DHT22;20065;48.380;10.892;2023-08-06T01:45:44;16.00;99.90
33741;DHT22;20065;48.380;10.892;2023-08-06T01:48:30;15.90;99.90
33741;DHT22;20065;48.380;10.892;2023-08-06T01:51:17;15.90;99.90
33741;DHT22;20065;48.380;10.892;2023-08-06T01:54:03;15.80;99.90
33741;DHT22;20065;48.380;10.892;2023-08-06T01:56:50;15.70;99.90
33741;DHT22;20065;48.380;10.892;2023-08-06T01:59:36;15.80;99.90
33741;DHT22;20065;48.380;10.892;2023-08-06T02:02:22;15.80;99.90
33741;DHT22;20065;48.380;10.892;2023-08-06T02:05:08;15.90;99.90
33741;DHT22;20065;48.380;10.892;2023-08-06T02:07:55;16.20;99.90
33741;DHT22;20065;48.380;10.892;2023-08-06T02:10:41;16.20;99.90
33741;DHT22;20065;48.380;10.892;2023-08-06T02:13:27;16.10;99.90
33741;DHT22;20065;48.380;10.892;2023-08-06T02:16:14;16.00;99.90
33741;DHT22;20065;48.380;10.892;2023-08-06T02:19:00;16.00;99.90
33741;DHT22;20065;48.380;10.892;2023-08-06T02:21:46;16.30;99.90
33741;DHT22;20065;48.380;10.892;2023-08-06T02:24:32;16.50;99.90
33741;DHT22;20065;48.380;10.892;2023-08-06T02:27:18;16.20;99.90
33741;DHT22;20065;48.380;10.892;2023-08-06T02:30:05;15.90;99.90
33741;DHT22;20065;48.380;10.892;2023-08-06T02:32:52;15.80;99.90
33741;DHT22;20065;48.380;10.892;2023-08-06T02:35:38;15.70;99.90
33741;DHT22;20065;48.380;10.892;2023-08-06T02:38:24;15.60;99.90
33741;DHT22;20065;48.380;10.892;2023-08-06T02:41:10;15.60;99.90
33741;DHT22;20065;48.380;10.892;2023-08-06T02:43:57;15.70;99.90
33741;DHT22;20065;48.380;10.892;2023-08-06T02:46:44;15.70;99.90
33741;DHT22;20065;48.380;10.892;2023-08-06T02:49:31;15.70;99.90
33741;DHT22;20065;48.380;10.892;2023-08-06T02:52:18;15.80;99.90
33741;DHT22;20065;48.380;10.892;2023-08-06T02:55:05;15.90;99.90
33741;DHT22;20065;48.380;10.892;2023-08-06T02:57:52;15.90;99.90
33741;DHT22;20065;48.380;10.892;2023-08-06T03:00:38;15.90;99.90
33741;DHT22;20065;48.380;10.892;2023-08-06T03:03:27;15.90;99.90
33741;DHT22;20065;48.380;10.892;2023-08-06T03:06:18;16.00;99.90
33741;DHT22;20065;48.380;10.892;2023-08-06T03:09:08;16.10;99.90
33741;DHT22;20065;48.380;10.892;2023-08-06T03:11:54;15.90;99.90
33741;DHT22;20065;48.380;10.892;2023-08-06T03:14:41;16.00;99.90
33741;DHT22;20065;48.380;10.892;2023-08-06T03:17:28;16.00;99.90
33741;DHT22;20065;48.380;10.892;2023-08-06T03:20:14;15.80;99.90
33741;DHT22;20065;48.380;10.892;2023-08-06T03:23:01;15.70;99.90
33741;DHT22;20065;48.380;10.892;2023-08-06T03:25:49;15.60;99.90
33741;DHT22;20065;48.380;10.892;2023-08-06T03:28:36;15.40;99.90
33741;DHT22;20065;48.380;10.892;2023-08-06T03:31:22;15.30;99.90
33741;DHT22;20065;48.380;10.892;2023-08-06T03:34:09;15.20;99.90
33741;DHT22;20065;48.380;10.892;2023-08-06T03:36:55;15.20;99.90
33741;DHT22;20065;48.380;10.892;2023-08-06T03:39:41;15.10;99.90
33741;DHT22;20065;48.380;10.892;2023-08-06T03:42:28;15.10;99.90
33741;DHT22;20065;48.380;10.892;2023-08-06T03:45:14;15.10;99.90
33741;DHT22;20065;48.380;10.892;2023-08-06T03:48:02;14.90;99.90
33741;DHT22;20065;48.380;10.892;2023-08-06T03:50:48;14.90;99.90
33741;DHT22;20065;48.380;10.892;2023-08-06T03:53:36;14.90;99.90
33741;DHT22;20065;48.380;10.892;2023-08-06T03:56:22;15.00;99.90
33741;DHT22;20065;48.380;10.892;2023-08-06T03:59:09;15.00;99.90
33741;DHT22;20065;48.380;10.892;2023-08-06T04:01:55;15.00;99.90
33741;DHT22;20065;48.380;10.892;2023-08-06T04:04:43;15.10;99.90
33741;DHT22;20065;48.380;10.892;2023-08-06T04:07:29;15.10;99.90
33741;DHT22;20065;48.380;10.892;2023-08-06T04:10:15;15.10;99.90
33741;DHT22;20065;48.380;10.892;2023-08-06T04:13:01;15.10;99.90
33741;DHT22;20065;48.380;10.892;2023-08-06T04:15:50;15.10;99.90
33741;DHT22;20065;48.380;10.892;2023-08-06T04:18:36;15.10;99.90
33741;DHT22;20065;48.380;10.892;2023-08-06T04:21:22;15.10;99.90
33741;DHT22;20065;48.380;10.892;2023-08-06T04:24:08;15.00;99.90
33741;DHT22;20065;48.380;10.892;2023-08-06T04:26:54;15.10;99.90
33741;DHT22;20065;48.380;10.892;2023-08-06T04:29:41;15.10;99.90
33741;DHT22;20065;48.380;10.892;2023-08-06T04:32:27;15.10;99.90
33741;DHT22;20065;48.380;10.892;2023-08-06T04:35:14;15.10;99.90
33741;DHT22;20065;48.380;10.892;2023-08-06T04:38:01;15.10;99.90
33741;DHT22;20065;48.380;10.892;2023-08-06T04:40:47;15.10;99.90
33741;DHT22;20065;48.380;10.892;2023-08-06T04:43:36;15.10;99.90
33741;DHT22;20065;48.380;10.892;2023-08-06T04:46:23;15.10;99.90
33741;DHT22;20065;48.380;10.892;2023-08-06T04:49:09;15.10;99.90
33741;DHT22;20065;48.380;10.892;2023-08-06T04:51:55;15.20;99.90
33741;DHT22;20065;48.380;10.892;2023-08-06T04:54:41;15.30;99.90
33741;DHT22;20065;48.380;10.892;2023-08-06T04:57:27;15.30;99.90
33741;DHT22;20065;48.380;10.892;2023-08-06T05:00:14;15.30;99.90
33741;DHT22;20065;48.380;10.892;2023-08-06T05:03:00;15.20;99.90
33741;DHT22;20065;48.380;10.892;2023-08-06T05:05:47;15.20;99.90
33741;DHT22;20065;48.380;10.892;2023-08-06T05:08:33;15.20;99.90
33741;DHT22;20065;48.380;10.892;2023-08-06T05:11:19;15.20;99.90
33741;DHT22;20065;48.380;10.892;2023-08-06T05:14:05;15.20;99.90
33741;DHT22;20065;48.380;10.892;2023-08-06T05:16:52;15.30;99.90
33741;DHT22;20065;48.380;10.892;2023-08-06T05:19:38;15.20;99.90
33741;DHT22;20065;48.380;10.892;2023-08-06T05:22:24;15.10;99.90
33741;DHT22;20065;48.380;10.892;2023-08-06T05:25:13;15.00;99.90
33741;DHT22;20065;48.380;10.892;2023-08-06T05:27:59;15.10;99.90
33741;DHT22;20065;48.380;10.892;2023-08-06T05:30:47;15.00;99.90
33741;DHT22;20065;48.380;10.892;2023-08-06T05:33:33;15.10;99.90
33741;DHT22;20065;48.380;10.892;2023-08-06T05:36:19;15.10;99.90
33741;DHT22;20065;48.380;10.892;2023-08-06T05:39:05;15.00;99.90
33741;DHT22;20065;48.380;10.892;2023-08-06T05:41:52;15.00;99.90
33741;DHT22;20065;48.380;10.892;2023-08-06T05:44:38;15.00;99.90
33741;DHT22;20065;48.380;10.892;2023-08-06T05:47:24;15.10;99.90
33741;DHT22;20065;48.380;10.892;2023-08-06T05:50:10;15.10;99.90
33741;DHT22;20065;48.380;10.892;2023-08-06T05:52:57;15.20;99.90
33741;DHT22;20065;48.380;10.892;2023-08-06T05:55:43;15.20;99.90
33741;DHT22;20065;48.380;10.892;2023-08-06T05:58:30;15.30;99.90
33741;DHT22;20065;48.380;10.892;2023-08-06T06:01:16;15.30;99.90
33741;DHT22;20065;48.380;10.892;2023-08-06T06:04:03;15.30;99.90
33741;DHT22;20065;48.380;10.892;2023-08-06T06:06:49;15.40;99.90
33741;DHT22;20065;48.380;10.892;2023-08-06T06:09:35;15.40;99.90
33741;DHT22;20065;48.380;10.892;2023-08-06T06:12:21;15.40;99.90
33741;DHT22;20065;48.380;10.892;2023-08-06T06:15:08;15.50;99.90
33741;DHT22;20065;48.380;10.892;2023-08-06T06:17:55;15.50;99.90
33741;DHT22;20065;48.380;10.892;2023-08-06T06:20:41;15.50;99.90
33741;DHT22;20065;48.380;10.892;2023-08-06T06:23:27;15.40;99.90
33741;DHT22;20065;48.380;10.892;2023-08-06T06:26:13;15.40;99.90
33741;DHT22;20065;48.380;10.892;2023-08-06T06:28:59;15.40;99.90
33741;DHT22;20065;48.380;10.892;2023-08-06T06:31:46;15.30;99.90
33741;DHT22;20065;48.380;10.892;2023-08-06T06:34:32;15.20;99.90
33741;DHT22;20065;48.380;10.892;2023-08-06T06:37:18;15.10;99.90
33741;DHT22;20065;48.380;10.892;2023-08-06T06:40:05;15.10;99.90
33741;DHT22;20065;48.380;10.892;2023-08-06T06:42:52;15.00;99.90
33741;DHT22;20065;48.380;10.892;2023-08-06T06:45:41;14.80;99.90
33741;DHT22;20065;48.380;10.892;2023-08-06T06:48:31;14.80;99.90
33741;DHT22;20065;48.380;10.892;2023-08-06T06:51:18;14.70;99.90
33741;DHT22;20065;48.380;10.892;2023-08-06T06:54:04;14.80;99.90
33741;DHT22;20065;48.380;10.892;2023-08-06T06:56:54;14.80;99.90
33741;DHT22;20065;48.380;10.892;2023-08-06T06:59:40;14.90;99.90
33741;DHT22;20065;48.380;10.892;2023-08-06T07:02:27;14.80;99.90
33741;DHT22;20065;48.380;10.892;2023-08-06T07:05:14;14.90;99.90
33741;DHT22;20065;48.380;10.892;2023-08-06T07:08:04;15.00;99.90
33741;DHT22;20065;48.380;10.892;2023-08-06T07:10:58;15.10;99.90
33741;DHT22;20065;48.380;10.892;2023-08-06T07:13:45;15.10;99.90
33741;DHT22;20065;48.380;10.892;2023-08-06T07:16:31;15.20;99.90
33741;DHT22;20065;48.380;10.892;2023-08-06T07:19:18;15.40;99.90
33741;DHT22;20065;48.380;10.892;2023-08-06T07:22:04;15.30;99.90
33741;DHT22;20065;48.380;10.892;2023-08-06T07:24:50;15.40;99.90
33741;DHT22;20065;48.380;10.892;2023-08-06T07:27:37;15.50;99.90
33741;DHT22;20065;48.380;10.892;2023-08-06T07:30:23;15.40;99.90
33741;DHT22;20065;48.380;10.892;2023-08-06T07:33:12;15.40;99.90
33741;DHT22;20065;48.380;10.892;2023-08-06T07:35:59;15.30;99.90
33741;DHT22;20065;48.380;10.892;2023-08-06T07:38:45;15.50;99.90
33741;DHT22;20065;48.380;10.892;2023-08-06T07:41:31;15.60;99.90
33741;DHT22;20065;48.380;10.892;2023-08-06T07:44:18;15.40;99.90
33741;DHT22;20065;48.380;10.892;2023-08-06T07:47:04;15.50;99.90
33741;DHT22;20065;48.380;10.892;2023-08-06T07:49:50;15.50;99.90
33741;DHT22;20065;48.380;10.892;2023-08-06T07:52:37;15.60;99.90
33741;DHT22;20065;48.380;10.892;2023-08-06T07:55:23;15.60;99.90
33741;DHT22;20065;48.380;10.892;2023-08-06T07:58:09;15.60;99.90
33741;DHT22;20065;48.380;10.892;2023-08-06T08:00:55;15.60;99.90
33741;DHT22;20065;48.380;10.892;2023-08-06T08:03:41;15.70;99.90
33741;DHT22;20065;48.380;10.892;2023-08-06T08:06:28;15.80;99.90
33741;DHT22;20065;48.380;10.892;2023-08-06T08:09:14;15.80;99.90
33741;DHT22;20065;48.380;10.892;2023-08-06T08:12:00;15.80;99.90
33741;DHT22;20065;48.380;10.892;2023-08-06T08:14:48;15.80;99.90
33741;DHT22;20065;48.380;10.892;2023-08-06T08:17:34;15.70;99.90
33741;DHT22;20065;48.380;10.892;2023-08-06T08:20:21;15.70;99.90
33741;DHT22;20065;48.380;10.892;2023-08-06T08:23:07;15.50;99.90
33741;DHT22;20065;48.380;10.892;2023-08-06T08:25:53;15.50;99.90
33741;DHT22;20065;48.380;10.892;2023-08-06T08:28:40;15.40;99.90
33741;DHT22;20065;48.380;10.892;2023-08-06T08:31:26;15.50;99.90
33741;DHT22;20065;48.380;10.892;2023-08-06T08:34:15;15.60;99.90
33741;DHT22;20065;48.380;10.892;2023-08-06T08:37:01;15.80;99.90
33741;DHT22;20065;48.380;10.892;2023-08-06T08:39:47;15.80;99.90
33741;DHT22;20065;48.380;10.892;2023-08-06T08:42:33;15.80;99.90
33741;DHT22;20065;48.380;10.892;2023-08-06T08:45:20;15.90;99.90
33741;DHT22;20065;48.380;10.892;2023-08-06T08:48:10;15.90;99.90
33741;DHT22;20065;48.380;10.892;2023-08-06T08:50:57;15.90;99.90
33741;DHT22;20065;48.380;10.892;2023-08-06T08:53:44;15.70;99.90
33741;DHT22;20065;48.380;10.892;2023-08-06T08:56:32;15.60;99.90
33741;DHT22;20065;48.380;10.892;2023-08-06T08:59:18;15.30;99.90
33741;DHT22;20065;48.380;10.892;2023-08-06T09:02:04;15.20;99.90
33741;DHT22;20065;48.380;10.892;2023-08-06T09:04:52;15.00;99.90
33741;DHT22;20065;48.380;10.892;2023-08-06T09:07:42;15.00;99.90
33741;DHT22;20065;48.380;10.892;2023-08-06T09:10:30;15.20;99.90
33741;DHT22;20065;48.380;10.892;2023-08-06T09:13:17;15.30;99.90
33741;DHT22;20065;48.380;10.892;2023-08-06T09:16:03;15.30;99.90
33741;DHT22;20065;48.380;10.892;2023-08-06T09:18:49;15.30;99.90
33741;DHT22;20065;48.380;10.892;2023-08-06T09:21:42;15.30;99.90
33741;DHT22;20065;48.380;10.892;2023-08-06T09:24:28;15.30;99.90
33741;DHT22;20065;48.380;10.892;2023-08-06T09:27:15;15.10;99.90
33741;DHT22;20065;48.380;10.892;2023-08-06T09:30:03;14.90;99.90
33741;DHT22;20065;48.380;10.892;2023-08-06T09:32:50;14.70;99.90
33741;DHT22;20065;48.380;10.892;2023-08-06T09:35:38;14.80;99.90
33741;DHT22;20065;48.380;10.892;2023-08-06T09:38:25;14.80;99.90
33741;DHT22;20065;48.380;10.892;2023-08-06T09:41:26;14.80;99.90
33741;DHT22;20065;48.380;10.892;2023-08-06T09:44:21;14.70;99.90
33741;DHT22;20065;48.380;10.892;2023-08-06T09:47:09;14.70;99.90
33741;DHT22;20065;48.380;10.892;2023-08-06T09:49:56;14.70;99.90
33741;DHT22;20065;48.380;10.892;2023-08-06T09:52:43;14.60;99.90
33741;DHT22;20065;48.380;10.892;2023-08-06T09:55:29;14.60;99.90
33741;DHT22;20065;48.380;10.892;2023-08-06T09:58:15;14.70;99.90
33741;DHT22;20065;48.380;10.892;2023-08-06T10:01:02;14.80;99.90
33741;DHT22;20065;48.380;10.892;2023-08-06T10:03:49;15.10;99.90
33741;DHT22;20065;48.380;10.892;2023-08-06T10:06:38;15.30;99.90
33741;DHT22;20065;48.380;10.892;2023-08-06T10:09:27;15.30;99.90
33741;DHT22;20065;48.380;10.892;2023-08-06T10:12:14;15.40;99.90
33741;DHT22;20065;48.380;10.892;2023-08-06T10:15:05;15.30;99.90
33741;DHT22;20065;48.380;10.892;2023-08-06T10:17:56;15.10;99.90
33741;DHT22;20065;48.380;10.892;2023-08-06T10:20:45;15.00;99.90
33741;DHT22;20065;48.380;10.892;2023-08-06T10:23:36;15.10;99.90
33741;DHT22;20065;48.380;10.892;2023-08-06T10:26:39;15.00;99.90
33741;DHT22;20065;48.380;10.892;2023-08-06T10:29:48;14.90;99.90
33741;DHT22;20065;48.380;10.892;2023-08-06T10:33:09;14.80;99.90
33741;DHT22;20065;48.380;10.892;2023-08-06T10:36:01;14.70;99.90
33741;DHT22;20065;48.380;10.892;2023-08-06T10:38:50;14.80;99.90
33741;DHT22;20065;48.380;10.892;2023-08-06T10:41:45;14.70;99.90
33741;DHT22;20065;48.380;10.892;2023-08-06T10:44:31;14.50;99.90
33741;DHT22;20065;48.380;10.892;2023-08-06T10:47:26;14.20;99.90
33741;DHT22;20065;48.380;10.892;2023-08-06T10:50:20;14.10;99.90
33741;DHT22;20065;48.380;10.892;2023-08-06T10:53:11;14.20;99.90
33741;DHT22;20065;48.380;10.892;2023-08-06T10:56:00;14.40;99.90
33741;DHT22;20065;48.380;10.892;2023-08-06T10:58:47;14.40;99.90
33741;DHT22;20065;48.380;10.892;2023-08-06T11:01:33;14.30;99.90
33741;DHT22;20065;48.380;10.892;2023-08-06T11:04:21;14.40;99.90
33741;DHT22;20065;48.380;10.892;2023-08-06T11:07:07;14.50;99.90
33741;DHT22;20065;48.380;10.892;2023-08-06T11:10:07;14.50;99.90
33741;DHT22;20065;48.380;10.892;2023-08-06T11:12:53;14.70;99.90
33741;DHT22;20065;48.380;10.892;2023-08-06T11:15:40;14.80;99.90
33741;DHT22;20065;48.380;10.892;2023-08-06T11:18:26;14.90;99.90
33741;DHT22;20065;48.380;10.892;2023-08-06T11:21:12;14.90;99.90
33741;DHT22;20065;48.380;10.892;2023-08-06T11:23:58;14.90;99.90
33741;DHT22;20065;48.380;10.892;2023-08-06T11:26:45;14.90;99.90
33741;DHT22;20065;48.380;10.892;2023-08-06T11:29:37;15.00;99.90
33741;DHT22;20065;48.380;10.892;2023-08-06T11:32:24;15.00;99.90
33741;DHT22;20065;48.380;10.892;2023-08-06T11:35:11;15.20;99.90
33741;DHT22;20065;48.380;10.892;2023-08-06T11:38:09;15.20;99.90
33741;DHT22;20065;48.380;10.892;2023-08-06T11:40:57;15.10;99.90
33741;DHT22;20065;48.380;10.892;2023-08-06T11:43:45;15.10;99.90
33741;DHT22;20065;48.380;10.892;2023-08-06T11:46:52;15.20;99.90
33741;DHT22;20065;48.380;10.892;2023-08-06T11:49:48;15.20;99.90
33741;DHT22;20065;48.380;10.892;2023-08-06T11:52:39;15.20;99.90
33741;DHT22;20065;48.380;10.892;2023-08-06T11:55:27;15.20;99.90
33741;DHT22;20065;48.380;10.892;2023-08-06T11:58:17;15.20;99.90
33741;DHT22;20065;48.380;10.892;2023-08-06T12:01:03;15.10;99.90
33741;DHT22;20065;48.380;10.892;2023-08-06T12:03:49;15.10;99.90
33741;DHT22;20065;48.380;10.892;2023-08-06T12:06:42;15.20;99.90
33741;DHT22;20065;48.380;10.892;2023-08-06T12:09:29;15.20;99.90
33741;DHT22;20065;48.380;10.892;2023-08-06T12:12:15;15.20;99.90
33741;DHT22;20065;48.380;10.892;2023-08-06T12:15:02;15.20;99.90
33741;DHT22;20065;48.380;10.892;2023-08-06T12:17:49;15.20;99.90
33741;DHT22;20065;48.380;10.892;2023-08-06T12:20:50;15.00;99.90
33741;DHT22;20065;48.380;10.892;2023-08-06T12:23:52;14.80;99.90
33741;DHT22;20065;48.380;10.892;2023-08-06T12:26:38;14.60;99.90
33741;DHT22;20065;48.380;10.892;2023-08-06T12:29:25;14.70;99.90
33741;DHT22;20065;48.380;10.892;2023-08-06T12:32:13;14.60;99.90
33741;DHT22;20065;48.380;10.892;2023-08-06T12:34:59;14.60;99.90
33741;DHT22;20065;48.380;10.892;2023-08-06T12:37:46;14.60;99.90
33741;DHT22;20065;48.380;10.892;2023-08-06T12:40:33;14.60;99.90
33741;DHT22;20065;48.380;10.892;2023-08-06T12:43:19;14.70;99.90
33741;DHT22;20065;48.380;10.892;2023-08-06T12:46:05;14.80;99.90
33741;DHT22;20065;48.380;10.892;2023-08-06T12:48:52;15.00;99.90
33741;DHT22;20065;48.380;10.892;2023-08-06T12:51:38;15.20;99.90
33741;DHT22;20065;48.380;10.892;2023-08-06T12:54:24;15.30;99.90
33741;DHT22;20065;48.380;10.892;2023-08-06T12:57:26;15.40;99.90
33741;DHT22;20065;48.380;10.892;2023-08-06T13:00:13;15.20;99.90
33741;DHT22;20065;48.380;10.892;2023-08-06T13:02:59;15.10;99.90
33741;DHT22;20065;48.380;10.892;2023-08-06T13:05:46;15.20;99.90
33741;DHT22;20065;48.380;10.892;2023-08-06T13:08:32;15.10;99.90
33741;DHT22;20065;48.380;10.892;2023-08-06T13:11:18;15.00;99.90
33741;DHT22;20065;48.380;10.892;2023-08-06T13:14:10;14.80;99.90
33741;DHT22;20065;48.380;10.892;2023-08-06T13:16:56;14.70;99.90
33741;DHT22;20065;48.380;10.892;2023-08-06T13:19:42;14.60;99.90
33741;DHT22;20065;48.380;10.892;2023-08-06T13:22:28;14.50;99.90
33741;DHT22;20065;48.380;10.892;2023-08-06T13:25:15;14.40;99.90
33741;DHT22;20065;48.380;10.892;2023-08-06T13:28:03;14.40;99.90
33741;DHT22;20065;48.380;10.892;2023-08-06T13:30:49;14.50;99.90
33741;DHT22;20065;48.380;10.892;2023-08-06T13:33:36;14.40;99.90
33741;DHT22;20065;48.380;10.892;2023-08-06T13:36:22;14.50;99.90
33741;DHT22;20065;48.380;10.892;2023-08-06T13:39:12;14.50;99.90
33741;DHT22;20065;48.380;10.892;2023-08-06T13:41:58;14.50;99.90
33741;DHT22;20065;48.380;10.892;2023-08-06T13:44:44;14.40;99.90
33741;DHT22;20065;48.380;10.892;2023-08-06T13:47:31;14.30;99.90
33741;DHT22;20065;48.380;10.892;2023-08-06T13:50:17;14.20;99.90
33741;DHT22;20065;48.380;10.892;2023-08-06T13:53:04;14.20;99.90
33741;DHT22;20065;48.380;10.892;2023-08-06T13:55:51;14.30;99.90
33741;DHT22;20065;48.380;10.892;2023-08-06T13:58:37;14.30;99.90
33741;DHT22;20065;48.380;10.892;2023-08-06T14:01:24;14.30;99.90
33741;DHT22;20065;48.380;10.892;2023-08-06T14:04:10;14.40;99.90
33741;DHT22;20065;48.380;10.892;2023-08-06T14:06:56;14.50;99.90
33741;DHT22;20065;48.380;10.892;2023-08-06T14:09:42;14.50;99.90
33741;DHT22;20065;48.380;10.892;2023-08-06T14:12:30;14.50;99.90
33741;DHT22;20065;48.380;10.892;2023-08-06T14:15:16;14.50;99.90
33741;DHT22;20065;48.380;10.892;2023-08-06T14:18:03;14.50;99.90
33741;DHT22;20065;48.380;10.892;2023-08-06T14:20:50;14.50;99.90
33741;DHT22;20065;48.380;10.892;2023-08-06T14:23:39;14.60;99.90
33741;DHT22;20065;48.380;10.892;2023-08-06T14:26:27;14.70;99.90
33741;DHT22;20065;48.380;10.892;2023-08-06T14:29:13;14.40;99.90
33741;DHT22;20065;48.380;10.892;2023-08-06T14:32:00;14.30;99.90
33741;DHT22;20065;48.380;10.892;2023-08-06T14:34:48;14.30;99.90
33741;DHT22;20065;48.380;10.892;2023-08-06T14:37:35;14.30;99.90
33741;DHT22;20065;48.380;10.892;2023-08-06T14:40:21;14.30;99.90
33741;DHT22;20065;48.380;10.892;2023-08-06T14:43:07;14.30;99.90
33741;DHT22;20065;48.380;10.892;2023-08-06T14:45:54;14.40;99.90
33741;DHT22;20065;48.380;10.892;2023-08-06T14:48:43;14.50;99.90
33741;DHT22;20065;48.380;10.892;2023-08-06T14:51:32;14.40;99.90
33741;DHT22;20065;48.380;10.892;2023-08-06T14:54:18;14.50;99.90
33741;DHT22;20065;48.380;10.892;2023-08-06T14:57:05;14.50;99.90
33741;DHT22;20065;48.380;10.892;2023-08-06T14:59:51;14.50;99.90
33741;DHT22;20065;48.380;10.892;2023-08-06T15:02:40;14.50;99.90
33741;DHT22;20065;48.380;10.892;2023-08-06T15:05:26;14.50;99.90
33741;DHT22;20065;48.380;10.892;2023-08-06T15:08:14;14.40;99.90
33741;DHT22;20065;48.380;10.892;2023-08-06T15:11:04;14.60;99.90
33741;DHT22;20065;48.380;10.892;2023-08-06T15:13:56;14.60;99.90
33741;DHT22;20065;48.380;10.892;2023-08-06T15:16:46;14.60;99.90
33741;DHT22;20065;48.380;10.892;2023-08-06T15:19:33;14.70;99.90
33741;DHT22;20065;48.380;10.892;2023-08-06T15:22:19;14.70;99.90
33741;DHT22;20065;48.380;10.892;2023-08-06T15:25:05;14.80;99.90
33741;DHT22;20065;48.380;10.892;2023-08-06T15:27:52;14.70;99.90
33741;DHT22;20065;48.380;10.892;2023-08-06T15:30:38;14.50;99.90
33741;DHT22;20065;48.380;10.892;2023-08-06T15:33:25;14.30;99.90
33741;DHT22;20065;48.380;10.892;2023-08-06T15:36:11;14.20;99.90
33741;DHT22;20065;48.380;10.892;2023-08-06T15:38:57;14.20;99.90
33741;DHT22;20065;48.380;10.892;2023-08-06T15:41:44;14.30;99.90
33741;DHT22;20065;48.380;10.892;2023-08-06T15:44:30;14.20;99.90
33741;DHT22;20065;48.380;10.892;2023-08-06T15:47:16;14.20;99.90
33741;DHT22;20065;48.380;10.892;2023-08-06T15:50:07;14.30;99.90
33741;DHT22;20065;48.380;10.892;2023-08-06T15:52:54;14.40;99.90
33741;DHT22;20065;48.380;10.892;2023-08-06T15:55:40;14.50;99.90
33741;DHT22;20065;48.380;10.892;2023-08-06T15:58:26;14.50;99.90
33741;DHT22;20065;48.380;10.892;2023-08-06T16:01:12;14.60;99.90
33741;DHT22;20065;48.380;10.892;2023-08-06T16:04:01;14.50;99.90
33741;DHT22;20065;48.380;10.892;2023-08-06T16:06:52;14.40;99.90
33741;DHT22;20065;48.380;10.892;2023-08-06T16:09:39;14.40;99.90
33741;DHT22;20065;48.380;10.892;2023-08-06T16:12:25;14.50;99.90
33741;DHT22;20065;48.380;10.892;2023-08-06T16:15:12;14.50;99.90
33741;DHT22;20065;48.380;10.892;2023-08-06T16:18:06;14.60;99.90
33741;DHT22;20065;48.380;10.892;2023-08-06T16:20:52;14.60;99.90
33741;DHT22;20065;48.380;10.892;2023-08-06T16:23:40;14.60;99.90
33741;DHT22;20065;48.380;10.892;2023-08-06T16:26:27;14.50;99.90
33741;DHT22;20065;48.380;10.892;2023-08-06T16:29:13;14.50;99.90
33741;DHT22;20065;48.380;10.892;2023-08-06T16:32:00;14.40;99.90
33741;DHT22;20065;48.380;10.892;2023-08-06T16:34:46;14.30;99.90
33741;DHT22;20065;48.380;10.892;2023-08-06T16:37:33;14.10;99.90
33741;DHT22;20065;48.380;10.892;2023-08-06T16:40:20;14.00;99.90
33741;DHT22;20065;48.380;10.892;2023-08-06T16:43:06;14.00;99.90
33741;DHT22;20065;48.380;10.892;2023-08-06T16:45:52;13.90;99.90
33741;DHT22;20065;48.380;10.892;2023-08-06T16:48:42;13.60;99.90
33741;DHT22;20065;48.380;10.892;2023-08-06T16:51:28;13.60;99.90
33741;DHT22;20065;48.380;10.892;2023-08-06T16:54:14;13.60;99.90
33741;DHT22;20065;48.380;10.892;2023-08-06T17:04:26;13.70;99.90
33741;DHT22;20065;48.380;10.892;2023-08-06T17:07:12;13.80;99.90
33741;DHT22;20065;48.380;10.892;2023-08-06T17:09:58;14.00;99.90
33741;DHT22;20065;48.380;10.892;2023-08-06T17:12:44;14.00;99.90
33741;DHT22;20065;48.380;10.892;2023-08-06T17:15:35;14.00;99.90
33741;DHT22;20065;48.380;10.892;2023-08-06T17:18:21;14.10;99.90
33741;DHT22;20065;48.380;10.892;2023-08-06T17:21:08;14.10;99.90
33741;DHT22;20065;48.380;10.892;2023-08-06T17:23:54;14.10;99.90
33741;DHT22;20065;48.380;10.892;2023-08-06T17:26:40;14.10;99.90
33741;DHT22;20065;48.380;10.892;2023-08-06T17:29:27;14.20;99.90
33741;DHT22;20065;48.380;10.892;2023-08-06T17:32:13;14.20;99.90
33741;DHT22;20065;48.380;10.892;2023-08-06T17:35:01;14.40;99.90
33741;DHT22;20065;48.380;10.892;2023-08-06T17:37:47;14.40;99.90
33741;DHT22;20065;48.380;10.892;2023-08-06T17:40:34;14.50;99.90
33741;DHT22;20065;48.380;10.892;2023-08-06T17:43:21;14.40;99.90